sensor_id;sensor_type;location;lat;lon;timestamp;P1;durP1;ratioP1;P2;durP2;ratioP2
31262;SDS011;17892;52.080;9.006;2023-04-01T00:00:54;0.50;;;0.20;;
31262;SDS011;17892;52.080;9.006;2023-04-01T00:03:22;1.52;;;0.47;;
31262;SDS011;17892;52.080;9.006;2023-04-01T00:05:49;1.77;;;0.45;;
31262;SDS011;17892;52.080;9.006;2023-04-01T00:08:15;1.45;;;0.30;;
31262;SDS011;17892;52.080;9.006;2023-04-01T00:10:41;0.40;;;0.20;;
31262;SDS011;17892;52.080;9.006;2023-04-01T00:13:07;0.65;;;0.20;;
31262;SDS011;17892;52.080;9.006;2023-04-01T00:15:33;1.48;;;0.30;;
31262;SDS011;17892;52.080;9.006;2023-04-01T00:17:59;0.95;;;0.30;;
31262;SDS011;17892;52.080;9.006;2023-04-01T00:20:25;1.02;;;0.40;;
31262;SDS011;17892;52.080;9.006;2023-04-01T00:22:51;0.63;;;0.30;;
31262;SDS011;17892;52.080;9.006;2023-04-01T00:25:17;1.33;;;0.38;;
31262;SDS011;17892;52.080;9.006;2023-04-01T00:27:43;0.75;;;0.30;;
31262;SDS011;17892;52.080;9.006;2023-04-01T00:30:09;0.82;;;0.20;;
31262;SDS011;17892;52.080;9.006;2023-04-01T00:32:35;0.80;;;0.30;;
31262;SDS011;17892;52.080;9.006;2023-04-01T00:35:02;3.90;;;0.90;;
31262;SDS011;17892;52.080;9.006;2023-04-01T00:37:29;1.05;;;0.32;;
31262;SDS011;17892;52.080;9.006;2023-04-01T00:39:55;1.42;;;0.32;;
31262;SDS011;17892;52.080;9.006;2023-04-01T00:42:22;1.05;;;0.30;;
31262;SDS011;17892;52.080;9.006;2023-04-01T00:44:50;1.27;;;0.30;;
31262;SDS011;17892;52.080;9.006;2023-04-01T00:47:18;1.45;;;0.35;;
31262;SDS011;17892;52.080;9.006;2023-04-01T00:49:51;0.93;;;0.20;;
31262;SDS011;17892;52.080;9.006;2023-04-01T00:52:21;0.73;;;0.10;;
31262;SDS011;17892;52.080;9.006;2023-04-01T00:54:50;0.95;;;0.25;;
31262;SDS011;17892;52.080;9.006;2023-04-01T00:57:23;1.27;;;0.28;;
31262;SDS011;17892;52.080;9.006;2023-04-01T00:59:56;1.55;;;0.30;;
31262;SDS011;17892;52.080;9.006;2023-04-01T01:02:23;0.50;;;0.20;;
31262;SDS011;17892;52.080;9.006;2023-04-01T01:04:49;1.58;;;0.43;;
31262;SDS011;17892;52.080;9.006;2023-04-01T01:12:40;0.20;;;0.10;;
31262;SDS011;17892;52.080;9.006;2023-04-01T01:16:31;0.32;;;0.10;;
31262;SDS011;17892;52.080;9.006;2023-04-01T01:18:35;0.75;;;0.20;;
31262;SDS011;17892;52.080;9.006;2023-04-01T01:24:14;2.90;;;0.52;;
31262;SDS011;17892;52.080;9.006;2023-04-01T01:27:02;0.93;;;0.20;;
31262;SDS011;17892;52.080;9.006;2023-04-01T01:35:31;0.60;;;0.30;;
31262;SDS011;17892;52.080;9.006;2023-04-01T01:38:05;2.33;;;0.30;;
31262;SDS011;17892;52.080;9.006;2023-04-01T01:40:35;1.15;;;0.38;;
31262;SDS011;17892;52.080;9.006;2023-04-01T01:45:34;0.57;;;0.15;;
31262;SDS011;17892;52.080;9.006;2023-04-01T01:48:04;0.40;;;0.13;;
31262;SDS011;17892;52.080;9.006;2023-04-01T01:50:32;1.25;;;0.30;;
31262;SDS011;17892;52.080;9.006;2023-04-01T01:53:02;0.68;;;0.15;;
31262;SDS011;17892;52.080;9.006;2023-04-01T01:55:36;0.20;;;0.10;;
31262;SDS011;17892;52.080;9.006;2023-04-01T01:58:07;0.60;;;0.17;;
31262;SDS011;17892;52.080;9.006;2023-04-01T02:00:58;1.20;;;0.30;;
31262;SDS011;17892;52.080;9.006;2023-04-01T02:03:27;1.48;;;0.30;;
31262;SDS011;17892;52.080;9.006;2023-04-01T02:05:59;0.55;;;0.10;;
31262;SDS011;17892;52.080;9.006;2023-04-01T02:08:39;1.73;;;0.30;;
31262;SDS011;17892;52.080;9.006;2023-04-01T02:11:13;0.75;;;0.20;;
31262;SDS011;17892;52.080;9.006;2023-04-01T02:13:50;0.50;;;0.20;;
31262;SDS011;17892;52.080;9.006;2023-04-01T02:16:31;0.40;;;0.10;;
31262;SDS011;17892;52.080;9.006;2023-04-01T02:19:07;0.20;;;0.10;;
31262;SDS011;17892;52.080;9.006;2023-04-01T02:21:35;0.52;;;0.17;;
31262;SDS011;17892;52.080;9.006;2023-04-01T02:24:04;0.82;;;0.13;;
31262;SDS011;17892;52.080;9.006;2023-04-01T02:26:34;2.00;;;0.20;;
31262;SDS011;17892;52.080;9.006;2023-04-01T02:29:00;1.30;;;0.45;;
31262;SDS011;17892;52.080;9.006;2023-04-01T02:31:28;1.02;;;0.20;;
31262;SDS011;17892;52.080;9.006;2023-04-01T02:33:55;1.15;;;0.20;;
31262;SDS011;17892;52.080;9.006;2023-04-01T02:36:22;1.33;;;0.20;;
31262;SDS011;17892;52.080;9.006;2023-04-01T02:38:48;0.63;;;0.10;;
31262;SDS011;17892;52.080;9.006;2023-04-01T02:41:16;0.90;;;0.20;;
31262;SDS011;17892;52.080;9.006;2023-04-01T02:43:41;2.00;;;0.30;;
31262;SDS011;17892;52.080;9.006;2023-04-01T02:46:07;1.02;;;0.22;;
31262;SDS011;17892;52.080;9.006;2023-04-01T02:48:33;0.68;;;0.10;;
31262;SDS011;17892;52.080;9.006;2023-04-01T02:50:58;1.00;;;0.10;;
31262;SDS011;17892;52.080;9.006;2023-04-01T02:53:24;0.90;;;0.20;;
31262;SDS011;17892;52.080;9.006;2023-04-01T02:55:50;0.13;;;0.10;;
31262;SDS011;17892;52.080;9.006;2023-04-01T02:58:16;0.73;;;0.30;;
31262;SDS011;17892;52.080;9.006;2023-04-01T03:00:42;1.77;;;0.30;;
31262;SDS011;17892;52.080;9.006;2023-04-01T03:03:09;1.08;;;0.28;;
31262;SDS011;17892;52.080;9.006;2023-04-01T03:05:35;1.33;;;0.25;;
31262;SDS011;17892;52.080;9.006;2023-04-01T03:08:01;1.00;;;0.25;;
31262;SDS011;17892;52.080;9.006;2023-04-01T03:10:27;0.68;;;0.10;;
31262;SDS011;17892;52.080;9.006;2023-04-01T03:12:53;0.90;;;0.22;;
31262;SDS011;17892;52.080;9.006;2023-04-01T03:15:18;1.63;;;0.20;;
31262;SDS011;17892;52.080;9.006;2023-04-01T03:17:44;3.30;;;0.30;;
31262;SDS011;17892;52.080;9.006;2023-04-01T03:20:11;1.52;;;0.30;;
31262;SDS011;17892;52.080;9.006;2023-04-01T03:22:38;0.70;;;0.22;;
31262;SDS011;17892;52.080;9.006;2023-04-01T03:25:05;1.77;;;0.30;;
31262;SDS011;17892;52.080;9.006;2023-04-01T03:27:32;1.30;;;0.20;;
31262;SDS011;17892;52.080;9.006;2023-04-01T03:30:00;1.27;;;0.35;;
31262;SDS011;17892;52.080;9.006;2023-04-01T03:32:27;0.70;;;0.20;;
31262;SDS011;17892;52.080;9.006;2023-04-01T03:34:53;0.45;;;0.20;;
31262;SDS011;17892;52.080;9.006;2023-04-01T03:37:19;1.60;;;0.25;;
31262;SDS011;17892;52.080;9.006;2023-04-01T03:39:45;1.23;;;0.20;;
31262;SDS011;17892;52.080;9.006;2023-04-01T03:42:11;0.63;;;0.17;;
31262;SDS011;17892;52.080;9.006;2023-04-01T03:44:37;0.20;;;0.10;;
31262;SDS011;17892;52.080;9.006;2023-04-01T03:47:03;1.15;;;0.45;;
31262;SDS011;17892;52.080;9.006;2023-04-01T03:49:28;2.00;;;0.30;;
31262;SDS011;17892;52.080;9.006;2023-04-01T03:51:54;0.80;;;0.28;;
31262;SDS011;17892;52.080;9.006;2023-04-01T03:54:20;1.88;;;0.20;;
31262;SDS011;17892;52.080;9.006;2023-04-01T03:56:46;0.55;;;0.22;;
31262;SDS011;17892;52.080;9.006;2023-04-01T03:59:11;1.42;;;0.30;;
31262;SDS011;17892;52.080;9.006;2023-04-01T04:01:38;0.70;;;0.20;;
31262;SDS011;17892;52.080;9.006;2023-04-01T04:04:03;1.80;;;0.30;;
31262;SDS011;17892;52.080;9.006;2023-04-01T04:06:30;0.50;;;0.17;;
31262;SDS011;17892;52.080;9.006;2023-04-01T04:08:55;0.45;;;0.10;;
31262;SDS011;17892;52.080;9.006;2023-04-01T04:11:21;0.95;;;0.35;;
31262;SDS011;17892;52.080;9.006;2023-04-01T04:13:48;0.80;;;0.10;;
31262;SDS011;17892;52.080;9.006;2023-04-01T04:16:14;0.45;;;0.20;;
31262;SDS011;17892;52.080;9.006;2023-04-01T04:18:41;1.27;;;0.20;;
31262;SDS011;17892;52.080;9.006;2023-04-01T04:21:10;0.68;;;0.25;;
31262;SDS011;17892;52.080;9.006;2023-04-01T04:23:38;1.25;;;0.30;;
31262;SDS011;17892;52.080;9.006;2023-04-01T04:26:08;1.67;;;0.20;;
31262;SDS011;17892;52.080;9.006;2023-04-01T04:28:36;0.55;;;0.22;;
31262;SDS011;17892;52.080;9.006;2023-04-01T04:31:03;0.75;;;0.20;;
31262;SDS011;17892;52.080;9.006;2023-04-01T04:33:30;1.23;;;0.30;;
31262;SDS011;17892;52.080;9.006;2023-04-01T04:35:56;1.17;;;0.20;;
31262;SDS011;17892;52.080;9.006;2023-04-01T04:38:23;1.98;;;0.45;;
31262;SDS011;17892;52.080;9.006;2023-04-01T04:40:50;1.17;;;0.30;;
31262;SDS011;17892;52.080;9.006;2023-04-01T04:43:16;1.17;;;0.30;;
31262;SDS011;17892;52.080;9.006;2023-04-01T04:45:43;0.40;;;0.20;;
31262;SDS011;17892;52.080;9.006;2023-04-01T04:48:09;1.05;;;0.30;;
31262;SDS011;17892;52.080;9.006;2023-04-01T04:50:41;1.65;;;0.40;;
31262;SDS011;17892;52.080;9.006;2023-04-01T04:53:11;0.50;;;0.30;;
31262;SDS011;17892;52.080;9.006;2023-04-01T04:55:42;0.50;;;0.20;;
31262;SDS011;17892;52.080;9.006;2023-04-01T04:58:12;0.70;;;0.20;;
31262;SDS011;17892;52.080;9.006;2023-04-01T05:00:38;1.95;;;0.38;;
31262;SDS011;17892;52.080;9.006;2023-04-01T05:03:03;1.65;;;0.45;;
31262;SDS011;17892;52.080;9.006;2023-04-01T05:05:29;0.57;;;0.25;;
31262;SDS011;17892;52.080;9.006;2023-04-01T05:07:55;1.73;;;0.43;;
31262;SDS011;17892;52.080;9.006;2023-04-01T05:10:21;0.90;;;0.32;;
31262;SDS011;17892;52.080;9.006;2023-04-01T05:12:46;1.00;;;0.25;;
31262;SDS011;17892;52.080;9.006;2023-04-01T05:15:12;1.40;;;0.45;;
31262;SDS011;17892;52.080;9.006;2023-04-01T05:17:38;0.68;;;0.30;;
31262;SDS011;17892;52.080;9.006;2023-04-01T05:20:04;1.85;;;0.50;;
31262;SDS011;17892;52.080;9.006;2023-04-01T05:22:31;2.13;;;0.40;;
31262;SDS011;17892;52.080;9.006;2023-04-01T05:24:57;1.30;;;0.32;;
31262;SDS011;17892;52.080;9.006;2023-04-01T05:27:22;1.10;;;0.40;;
31262;SDS011;17892;52.080;9.006;2023-04-01T05:29:48;0.60;;;0.30;;
31262;SDS011;17892;52.080;9.006;2023-04-01T05:32:14;0.95;;;0.30;;
31262;SDS011;17892;52.080;9.006;2023-04-01T05:34:40;0.88;;;0.30;;
31262;SDS011;17892;52.080;9.006;2023-04-01T05:37:06;1.02;;;0.30;;
31262;SDS011;17892;52.080;9.006;2023-04-01T05:39:35;1.58;;;0.30;;
31262;SDS011;17892;52.080;9.006;2023-04-01T05:42:02;1.05;;;0.30;;
31262;SDS011;17892;52.080;9.006;2023-04-01T05:44:31;1.48;;;0.30;;
31262;SDS011;17892;52.080;9.006;2023-04-01T05:46:56;1.02;;;0.20;;
31262;SDS011;17892;52.080;9.006;2023-04-01T05:49:22;1.17;;;0.40;;
31262;SDS011;17892;52.080;9.006;2023-04-01T05:51:48;0.75;;;0.30;;
31262;SDS011;17892;52.080;9.006;2023-04-01T05:54:13;2.13;;;0.47;;
31262;SDS011;17892;52.080;9.006;2023-04-01T05:56:39;0.40;;;0.20;;
31262;SDS011;17892;52.080;9.006;2023-04-01T05:59:05;1.48;;;0.32;;
31262;SDS011;17892;52.080;9.006;2023-04-01T06:01:31;2.15;;;0.40;;
31262;SDS011;17892;52.080;9.006;2023-04-01T06:03:56;0.73;;;0.30;;
31262;SDS011;17892;52.080;9.006;2023-04-01T06:06:26;0.80;;;0.22;;
31262;SDS011;17892;52.080;9.006;2023-04-01T06:08:55;0.25;;;0.10;;
31262;SDS011;17892;52.080;9.006;2023-04-01T06:11:34;0.93;;;0.25;;
31262;SDS011;17892;52.080;9.006;2023-04-01T06:14:18;1.02;;;0.30;;
31262;SDS011;17892;52.080;9.006;2023-04-01T06:20:25;0.82;;;0.30;;
31262;SDS011;17892;52.080;9.006;2023-04-01T06:31:58;0.70;;;0.30;;
31262;SDS011;17892;52.080;9.006;2023-04-01T06:34:46;1.58;;;0.28;;
31262;SDS011;17892;52.080;9.006;2023-04-01T06:40:53;1.02;;;0.28;;
31262;SDS011;17892;52.080;9.006;2023-04-01T06:47:01;0.85;;;0.30;;
31262;SDS011;17892;52.080;9.006;2023-04-01T06:49:55;0.90;;;0.30;;
31262;SDS011;17892;52.080;9.006;2023-04-01T06:57:55;1.00;;;0.30;;
31262;SDS011;17892;52.080;9.006;2023-04-01T07:05:54;1.10;;;0.30;;
31262;SDS011;17892;52.080;9.006;2023-04-01T07:08:24;1.23;;;0.40;;
31262;SDS011;17892;52.080;9.006;2023-04-01T07:11:03;1.08;;;0.30;;
31262;SDS011;17892;52.080;9.006;2023-04-01T07:13:35;1.20;;;0.40;;
31262;SDS011;17892;52.080;9.006;2023-04-01T07:16:30;2.20;;;0.50;;
31262;SDS011;17892;52.080;9.006;2023-04-01T07:22:20;1.08;;;0.30;;
31262;SDS011;17892;52.080;9.006;2023-04-01T07:25:01;1.27;;;0.40;;
31262;SDS011;17892;52.080;9.006;2023-04-01T07:27:37;1.08;;;0.32;;
31262;SDS011;17892;52.080;9.006;2023-04-01T07:30:06;1.75;;;0.45;;
31262;SDS011;17892;52.080;9.006;2023-04-01T07:32:56;0.43;;;0.20;;
31262;SDS011;17892;52.080;9.006;2023-04-01T07:38:59;0.40;;;0.20;;
31262;SDS011;17892;52.080;9.006;2023-04-01T07:44:54;0.63;;;0.22;;
31262;SDS011;17892;52.080;9.006;2023-04-01T07:47:36;2.42;;;0.90;;
31262;SDS011;17892;52.080;9.006;2023-04-01T07:50:30;0.57;;;0.15;;
31262;SDS011;17892;52.080;9.006;2023-04-01T07:55:51;0.82;;;0.40;;
31262;SDS011;17892;52.080;9.006;2023-04-01T07:58:45;1.10;;;0.20;;
31262;SDS011;17892;52.080;9.006;2023-04-01T08:11:11;1.25;;;0.40;;
31262;SDS011;17892;52.080;9.006;2023-04-01T08:20:31;1.83;;;0.30;;
31262;SDS011;17892;52.080;9.006;2023-04-01T08:23:30;0.40;;;0.20;;
31262;SDS011;17892;52.080;9.006;2023-04-01T08:28:37;1.05;;;0.40;;
31262;SDS011;17892;52.080;9.006;2023-04-01T08:31:23;0.93;;;0.40;;
31262;SDS011;17892;52.080;9.006;2023-04-01T08:34:20;1.55;;;0.30;;
31262;SDS011;17892;52.080;9.006;2023-04-01T08:37:02;1.00;;;0.38;;
31262;SDS011;17892;52.080;9.006;2023-04-01T08:40:22;1.17;;;0.20;;
31262;SDS011;17892;52.080;9.006;2023-04-01T08:46:13;1.00;;;0.40;;
31262;SDS011;17892;52.080;9.006;2023-04-01T09:06:10;0.32;;;0.20;;
31262;SDS011;17892;52.080;9.006;2023-04-01T09:09:18;0.80;;;0.30;;
31262;SDS011;17892;52.080;9.006;2023-04-01T09:35:47;0.60;;;0.30;;
31262;SDS011;17892;52.080;9.006;2023-04-01T09:45:14;0.43;;;0.30;;
31262;SDS011;17892;52.080;9.006;2023-04-01T09:47:55;0.85;;;0.30;;
31262;SDS011;17892;52.080;9.006;2023-04-01T09:54:10;1.00;;;0.40;;
31262;SDS011;17892;52.080;9.006;2023-04-01T10:02:58;1.42;;;0.60;;
31262;SDS011;17892;52.080;9.006;2023-04-01T10:09:12;1.23;;;0.52;;
31262;SDS011;17892;52.080;9.006;2023-04-01T10:17:58;1.88;;;0.60;;
31262;SDS011;17892;52.080;9.006;2023-04-01T10:21:13;0.73;;;0.40;;
31262;SDS011;17892;52.080;9.006;2023-04-01T10:38:12;0.85;;;0.40;;
31262;SDS011;17892;52.080;9.006;2023-04-01T10:41:08;0.63;;;0.30;;
31262;SDS011;17892;52.080;9.006;2023-04-01T10:44:33;1.15;;;0.45;;
31262;SDS011;17892;52.080;9.006;2023-04-01T10:50:53;0.50;;;0.20;;
31262;SDS011;17892;52.080;9.006;2023-04-01T10:56:50;2.33;;;0.47;;
31262;SDS011;17892;52.080;9.006;2023-04-01T10:59:31;0.57;;;0.30;;
31262;SDS011;17892;52.080;9.006;2023-04-01T11:05:13;0.43;;;0.30;;
31262;SDS011;17892;52.080;9.006;2023-04-01T11:11:45;0.82;;;0.40;;
31262;SDS011;17892;52.080;9.006;2023-04-01T11:18:41;0.90;;;0.40;;
31262;SDS011;17892;52.080;9.006;2023-04-01T11:42:24;1.17;;;0.35;;
31262;SDS011;17892;52.080;9.006;2023-04-01T11:51:37;0.70;;;0.30;;
31262;SDS011;17892;52.080;9.006;2023-04-01T12:09:11;0.15;;;0.10;;
31262;SDS011;17892;52.080;9.006;2023-04-01T12:15:00;0.68;;;0.10;;
31262;SDS011;17892;52.080;9.006;2023-04-01T12:21:17;0.40;;;0.15;;
31262;SDS011;17892;52.080;9.006;2023-04-01T12:32:40;0.22;;;0.10;;
31262;SDS011;17892;52.080;9.006;2023-04-01T12:35:32;0.80;;;0.20;;
31262;SDS011;17892;52.080;9.006;2023-04-01T12:46:51;0.38;;;0.10;;
31262;SDS011;17892;52.080;9.006;2023-04-01T12:55:43;1.50;;;0.30;;
31262;SDS011;17892;52.080;9.006;2023-04-01T13:01:30;0.50;;;0.22;;
31262;SDS011;17892;52.080;9.006;2023-04-01T13:07:19;0.85;;;0.30;;
31262;SDS011;17892;52.080;9.006;2023-04-01T13:10:06;0.65;;;0.20;;
31262;SDS011;17892;52.080;9.006;2023-04-01T13:13:08;1.02;;;0.20;;
31262;SDS011;17892;52.080;9.006;2023-04-01T13:15:52;0.57;;;0.30;;
31262;SDS011;17892;52.080;9.006;2023-04-01T13:33:25;1.02;;;0.40;;
31262;SDS011;17892;52.080;9.006;2023-04-01T13:36:35;1.02;;;0.35;;
31262;SDS011;17892;52.080;9.006;2023-04-01T13:39:15;0.70;;;0.22;;
31262;SDS011;17892;52.080;9.006;2023-04-01T13:56:11;1.02;;;0.40;;
31262;SDS011;17892;52.080;9.006;2023-04-01T14:10:54;1.27;;;0.60;;
31262;SDS011;17892;52.080;9.006;2023-04-01T14:34:44;1.25;;;0.38;;
31262;SDS011;17892;52.080;9.006;2023-04-01T14:38:04;0.85;;;0.40;;
31262;SDS011;17892;52.080;9.006;2023-04-01T14:41:16;1.00;;;0.28;;
31262;SDS011;17892;52.080;9.006;2023-04-01T14:43:46;0.70;;;0.28;;
31262;SDS011;17892;52.080;9.006;2023-04-01T14:49:47;1.38;;;0.55;;
31262;SDS011;17892;52.080;9.006;2023-04-01T14:52:22;1.15;;;0.40;;
31262;SDS011;17892;52.080;9.006;2023-04-01T14:54:59;1.58;;;0.30;;
31262;SDS011;17892;52.080;9.006;2023-04-01T14:57:27;0.65;;;0.20;;
31262;SDS011;17892;52.080;9.006;2023-04-01T15:00:12;0.68;;;0.20;;
31262;SDS011;17892;52.080;9.006;2023-04-01T15:02:59;0.68;;;0.15;;
31262;SDS011;17892;52.080;9.006;2023-04-01T15:08:51;0.30;;;0.10;;
31262;SDS011;17892;52.080;9.006;2023-04-01T15:14:49;0.50;;;0.20;;
31262;SDS011;17892;52.080;9.006;2023-04-01T15:31:45;0.95;;;0.20;;
31262;SDS011;17892;52.080;9.006;2023-04-01T15:37:55;1.83;;;0.20;;
31262;SDS011;17892;52.080;9.006;2023-04-01T15:41:03;0.57;;;0.20;;
31262;SDS011;17892;52.080;9.006;2023-04-01T15:43:45;0.63;;;0.17;;
31262;SDS011;17892;52.080;9.006;2023-04-01T15:55:43;1.13;;;0.30;;
31262;SDS011;17892;52.080;9.006;2023-04-01T16:07:48;1.33;;;0.50;;
31262;SDS011;17892;52.080;9.006;2023-04-01T16:10:35;1.08;;;0.47;;
31262;SDS011;17892;52.080;9.006;2023-04-01T16:30:03;1.17;;;0.40;;
31262;SDS011;17892;52.080;9.006;2023-04-01T16:33:14;1.23;;;0.40;;
31262;SDS011;17892;52.080;9.006;2023-04-01T16:35:55;1.02;;;0.55;;
31262;SDS011;17892;52.080;9.006;2023-04-01T16:41:47;1.00;;;0.45;;
31262;SDS011;17892;52.080;9.006;2023-04-01T16:44:24;1.60;;;0.68;;
31262;SDS011;17892;52.080;9.006;2023-04-01T16:46:52;1.35;;;0.50;;
31262;SDS011;17892;52.080;9.006;2023-04-01T16:52:04;1.25;;;0.40;;
31262;SDS011;17892;52.080;9.006;2023-04-01T16:54:43;0.70;;;0.38;;
31262;SDS011;17892;52.080;9.006;2023-04-01T16:57:43;0.88;;;0.30;;
31262;SDS011;17892;52.080;9.006;2023-04-01T17:05:40;1.20;;;0.40;;
31262;SDS011;17892;52.080;9.006;2023-04-01T17:08:44;0.73;;;0.30;;
31262;SDS011;17892;52.080;9.006;2023-04-01T17:11:26;0.70;;;0.30;;
31262;SDS011;17892;52.080;9.006;2023-04-01T17:14:06;1.08;;;0.38;;
31262;SDS011;17892;52.080;9.006;2023-04-01T17:28:30;1.40;;;0.50;;
31262;SDS011;17892;52.080;9.006;2023-04-01T17:34:17;1.10;;;0.50;;
31262;SDS011;17892;52.080;9.006;2023-04-01T17:37:05;1.40;;;0.50;;
31262;SDS011;17892;52.080;9.006;2023-04-01T17:49:00;1.48;;;0.70;;
31262;SDS011;17892;52.080;9.006;2023-04-01T17:51:51;1.35;;;0.63;;
31262;SDS011;17892;52.080;9.006;2023-04-01T17:58:03;1.50;;;0.68;;
31262;SDS011;17892;52.080;9.006;2023-04-01T18:01:01;1.13;;;0.50;;
31262;SDS011;17892;52.080;9.006;2023-04-01T18:09:38;1.05;;;0.50;;
31262;SDS011;17892;52.080;9.006;2023-04-01T18:12:56;1.08;;;0.47;;
31262;SDS011;17892;52.080;9.006;2023-04-01T18:18:46;1.33;;;0.50;;
31262;SDS011;17892;52.080;9.006;2023-04-01T18:21:45;1.30;;;0.50;;
31262;SDS011;17892;52.080;9.006;2023-04-01T18:24:35;1.20;;;0.50;;
31262;SDS011;17892;52.080;9.006;2023-04-01T18:27:15;1.20;;;0.40;;
31262;SDS011;17892;52.080;9.006;2023-04-01T18:30:07;0.75;;;0.30;;
31262;SDS011;17892;52.080;9.006;2023-04-01T18:33:04;0.70;;;0.30;;
31262;SDS011;17892;52.080;9.006;2023-04-01T18:39:01;1.63;;;0.52;;
31262;SDS011;17892;52.080;9.006;2023-04-01T18:41:47;1.50;;;0.50;;
31262;SDS011;17892;52.080;9.006;2023-04-01T18:48:00;1.00;;;0.50;;
31262;SDS011;17892;52.080;9.006;2023-04-01T18:50:33;1.83;;;0.70;;
31262;SDS011;17892;52.080;9.006;2023-04-01T18:53:42;1.20;;;0.50;;
31262;SDS011;17892;52.080;9.006;2023-04-01T19:01:42;0.73;;;0.32;;
31262;SDS011;17892;52.080;9.006;2023-04-01T19:04:50;1.02;;;0.40;;
31262;SDS011;17892;52.080;9.006;2023-04-01T19:10:12;0.80;;;0.40;;
31262;SDS011;17892;52.080;9.006;2023-04-01T19:12:53;1.30;;;0.60;;
31262;SDS011;17892;52.080;9.006;2023-04-01T19:15:33;1.70;;;0.70;;
31262;SDS011;17892;52.080;9.006;2023-04-01T19:20:47;1.30;;;0.60;;
31262;SDS011;17892;52.080;9.006;2023-04-01T19:26:35;1.77;;;0.70;;
31262;SDS011;17892;52.080;9.006;2023-04-01T19:32:21;1.60;;;0.80;;
31262;SDS011;17892;52.080;9.006;2023-04-01T19:35:19;1.80;;;0.73;;
31262;SDS011;17892;52.080;9.006;2023-04-01T19:38:29;2.00;;;0.90;;
31262;SDS011;17892;52.080;9.006;2023-04-01T19:41:04;1.60;;;0.70;;
31262;SDS011;17892;52.080;9.006;2023-04-01T19:46:42;1.70;;;0.82;;
31262;SDS011;17892;52.080;9.006;2023-04-01T19:49:18;2.83;;;0.98;;
31262;SDS011;17892;52.080;9.006;2023-04-01T19:51:56;1.83;;;0.80;;
31262;SDS011;17892;52.080;9.006;2023-04-01T20:03:00;1.40;;;0.60;;
31262;SDS011;17892;52.080;9.006;2023-04-01T20:08:49;1.85;;;0.70;;
31262;SDS011;17892;52.080;9.006;2023-04-01T20:11:55;1.63;;;0.70;;
31262;SDS011;17892;52.080;9.006;2023-04-01T20:19:58;2.20;;;1.00;;
31262;SDS011;17892;52.080;9.006;2023-04-01T20:25:20;2.13;;;1.00;;
31262;SDS011;17892;52.080;9.006;2023-04-01T20:31:00;2.28;;;0.90;;
31262;SDS011;17892;52.080;9.006;2023-04-01T20:39:45;2.30;;;1.20;;
31262;SDS011;17892;52.080;9.006;2023-04-01T20:45:15;2.72;;;1.40;;
31262;SDS011;17892;52.080;9.006;2023-04-01T20:51:15;2.20;;;0.98;;
31262;SDS011;17892;52.080;9.006;2023-04-01T20:53:57;2.55;;;1.05;;
31262;SDS011;17892;52.080;9.006;2023-04-01T20:59:55;2.72;;;1.30;;
31262;SDS011;17892;52.080;9.006;2023-04-01T21:02:56;2.67;;;1.25;;
31262;SDS011;17892;52.080;9.006;2023-04-01T21:05:57;2.42;;;1.10;;
31262;SDS011;17892;52.080;9.006;2023-04-01T21:11:38;1.52;;;0.73;;
31262;SDS011;17892;52.080;9.006;2023-04-01T21:17:33;2.45;;;1.30;;
31262;SDS011;17892;52.080;9.006;2023-04-01T21:21:04;2.47;;;1.10;;
31262;SDS011;17892;52.080;9.006;2023-04-01T21:31:27;2.08;;;1.00;;
31262;SDS011;17892;52.080;9.006;2023-04-01T21:43:27;2.40;;;1.30;;
31262;SDS011;17892;52.080;9.006;2023-04-01T21:52:59;3.05;;;1.10;;
31262;SDS011;17892;52.080;9.006;2023-04-01T22:02:06;2.78;;;1.13;;
31262;SDS011;17892;52.080;9.006;2023-04-01T22:07:47;2.50;;;1.10;;
31262;SDS011;17892;52.080;9.006;2023-04-01T22:18:49;1.60;;;0.80;;
31262;SDS011;17892;52.080;9.006;2023-04-01T22:30:00;2.47;;;0.95;;
31262;SDS011;17892;52.080;9.006;2023-04-01T22:32:49;2.75;;;0.98;;
31262;SDS011;17892;52.080;9.006;2023-04-01T22:36:03;1.80;;;0.90;;
31262;SDS011;17892;52.080;9.006;2023-04-01T22:38:31;2.50;;;0.80;;
31262;SDS011;17892;52.080;9.006;2023-04-01T22:44:42;2.50;;;1.10;;
31262;SDS011;17892;52.080;9.006;2023-04-01T22:47:33;2.10;;;1.00;;
31262;SDS011;17892;52.080;9.006;2023-04-01T22:51:00;3.05;;;1.65;;
31262;SDS011;17892;52.080;9.006;2023-04-01T22:56:37;3.38;;;1.65;;
31262;SDS011;17892;52.080;9.006;2023-04-01T22:59:14;3.28;;;1.90;;
31262;SDS011;17892;52.080;9.006;2023-04-01T23:02:03;3.72;;;1.88;;
31262;SDS011;17892;52.080;9.006;2023-04-01T23:04:48;3.13;;;1.60;;
31262;SDS011;17892;52.080;9.006;2023-04-01T23:10:20;3.80;;;1.70;;
31262;SDS011;17892;52.080;9.006;2023-04-01T23:13:05;3.83;;;1.90;;
31262;SDS011;17892;52.080;9.006;2023-04-01T23:15:41;4.85;;;2.20;;
31262;SDS011;17892;52.080;9.006;2023-04-01T23:18:11;3.60;;;1.80;;
31262;SDS011;17892;52.080;9.006;2023-04-01T23:23:41;3.70;;;2.00;;
31262;SDS011;17892;52.080;9.006;2023-04-01T23:29:04;2.83;;;1.40;;
31262;SDS011;17892;52.080;9.006;2023-04-01T23:31:39;3.88;;;1.38;;
31262;SDS011;17892;52.080;9.006;2023-04-01T23:36:39;3.33;;;2.00;;
31262;SDS011;17892;52.080;9.006;2023-04-01T23:41:47;3.00;;;1.30;;
31262;SDS011;17892;52.080;9.006;2023-04-01T23:44:16;4.05;;;2.03;;
31262;SDS011;17892;52.080;9.006;2023-04-01T23:46:42;3.83;;;1.77;;
31262;SDS011;17892;52.080;9.006;2023-04-01T23:49:12;5.47;;;1.73;;
31262;SDS011;17892;52.080;9.006;2023-04-01T23:52:27;3.38;;;2.00;;
31262;SDS011;17892;52.080;9.006;2023-04-01T23:54:49;3.55;;;1.80;;
31262;SDS011;17892;52.080;9.006;2023-04-01T23:57:28;3.65;;;1.85;;
